Time;durP1;ratioP1;P1;durP2;ratioP2;P2;SDS_P1;SDS_P2;PMS_P1;PMS_P2;Temp;Humidity;BMP_temperature;BMP_pressure;BME280_temperature;BME280_humidity;BME280_pressure;Samples;Min_cycle;Max_cycle;Signal;HPM_P1;HPM_P2
2022/06/05 00:00:29;;;;;;;7.85;4.00;;;;;;;;;;5105922;27;20051;-74
2022/06/05 00:03:14;;;;;;;6.22;3.58;;;;;;;;;;5104463;28;20045;-77
2022/06/05 00:06:01;;;;;;;5.78;3.80;;;;;;;;;;5102147;27;20052;-75
2022/06/05 00:09:08;;;;;;;5.78;4.07;;;;;;;;;;5099030;27;20534;-75
2022/06/05 00:11:43;;;;;;;6.30;4.13;;;;;;;;;;5051398;28;20067;-75
2022/06/05 00:14:09;;;;;;;6.63;4.22;;;;;;;;;;5101740;27;20032;-77
2022/06/05 00:16:34;;;;;;;7.28;4.13;;;;;;;;;;5100704;28;20093;-77
2022/06/05 00:19:00;;;;;;;7.40;4.60;;;;;;;;;;5102061;28;20100;-77
2022/06/05 00:21:25;;;;;;;7.50;4.38;;;;;;;;;;5102024;28;20020;-76
2022/06/05 00:23:52;;;;;;;9.15;4.20;;;;;;;;;;5103993;27;20036;-74
2022/06/05 00:26:25;;;;;;;6.05;4.07;;;;;;;;;;5110234;28;20654;-75
2022/06/05 00:28:56;;;;;;;7.35;4.07;;;;;;;;;;5104707;27;20027;-73
2022/06/05 00:31:33;;;;;;;5.88;4.07;;;;;;;;;;5102256;27;20035;-75
2022/06/05 00:33:59;;;;;;;6.50;4.35;;;;;;;;;;5099799;27;20094;-75
2022/06/05 00:36:42;;;;;;;5.47;3.88;;;;;;;;;;5100929;28;20244;-74
2022/06/05 00:39:17;;;;;;;6.82;4.05;;;;;;;;;;5096283;27;20067;-77
2022/06/05 00:41:59;;;;;;;7.25;4.18;;;;;;;;;;5105673;27;20036;-74
2022/06/05 00:44:32;;;;;;;6.47;4.25;;;;;;;;;;5098473;27;20027;-77
2022/06/05 00:46:59;;;;;;;6.28;4.40;;;;;;;;;;5098250;27;20038;-75
2022/06/05 00:49:31;;;;;;;6.30;4.00;;;;;;;;;;5101093;27;20074;-77
2022/06/05 00:51:57;;;;;;;7.85;4.38;;;;;;;;;;5096431;27;20042;-75
2022/06/05 00:54:23;;;;;;;7.38;4.05;;;;;;;;;;5100067;27;20027;-73
2022/06/05 00:56:48;;;;;;;7.22;4.53;;;;;;;;;;5097818;28;20036;-75
2022/06/05 00:59:15;;;;;;;7.05;4.82;;;;;;;;;;5101212;28;20019;-74
2022/06/05 01:01:42;;;;;;;7.57;4.50;;;;;;;;;;5103446;28;20027;-77
2022/06/05 01:04:08;;;;;;;10.30;5.13;;;;;;;;;;5104197;28;20015;-73
2022/06/05 01:06:33;;;;;;;9.25;4.38;;;;;;;;;;5098604;27;20029;-75
2022/06/05 01:08:59;;;;;;;8.15;4.55;;;;;;;;;;5097214;28;20391;-74
2022/06/05 01:11:40;;;;;;;7.30;4.72;;;;;;;;;;5103669;28;20027;-75
2022/06/05 01:14:27;;;;;;;6.95;4.70;;;;;;;;;;5103025;28;20514;-77
2022/06/05 01:17:27;;;;;;;7.72;4.13;;;;;;;;;;5110059;27;20032;-76
2022/06/05 01:20:05;;;;;;;8.50;4.63;;;;;;;;;;5099016;27;20051;-73
2022/06/05 01:22:51;;;;;;;8.50;4.25;;;;;;;;;;5113403;27;20615;-76
2022/06/05 01:25:51;;;;;;;7.15;4.13;;;;;;;;;;5097788;28;20479;-75
2022/06/05 01:28:20;;;;;;;7.97;4.75;;;;;;;;;;5099937;27;20024;-77
2022/06/05 01:31:26;;;;;;;8.13;4.80;;;;;;;;;;5098681;27;20042;-74
2022/06/05 01:34:14;;;;;;;9.80;4.88;;;;;;;;;;5100774;28;20040;-74
2022/06/05 01:36:42;;;;;;;7.32;4.22;;;;;;;;;;5097442;27;20498;-76
2022/06/05 01:39:15;;;;;;;6.45;4.20;;;;;;;;;;5098167;27;20027;-76
2022/06/05 01:41:45;;;;;;;6.95;4.63;;;;;;;;;;5096002;28;20031;-77
2022/06/05 01:44:17;;;;;;;8.98;4.80;;;;;;;;;;5100424;27;20028;-75
2022/06/05 01:46:42;;;;;;;6.50;4.50;;;;;;;;;;5093244;27;20119;-74
2022/06/05 01:49:32;;;;;;;8.38;4.05;;;;;;;;;;5102167;27;20118;-75
2022/06/05 01:52:15;;;;;;;6.25;4.13;;;;;;;;;;5100178;27;20078;-75
2022/06/05 01:54:46;;;;;;;6.93;4.80;;;;;;;;;;5095588;27;20123;-76
2022/06/05 01:57:15;;;;;;;7.43;4.70;;;;;;;;;;5097550;28;20050;-77
2022/06/05 01:59:51;;;;;;;7.43;4.30;;;;;;;;;;5092716;27;20032;-77
2022/06/05 02:02:25;;;;;;;9.27;4.85;;;;;;;;;;5100141;28;20031;-75
2022/06/05 02:05:00;;;;;;;7.25;4.80;;;;;;;;;;5103902;28;20446;-74
2022/06/05 02:07:37;;;;;;;6.25;3.72;;;;;;;;;;5095495;27;20028;-74
2022/06/05 02:10:39;;;;;;;6.28;4.13;;;;;;;;;;5099144;27;20072;-75
2022/06/05 02:13:05;;;;;;;7.30;4.30;;;;;;;;;;5070366;28;20085;-74
2022/06/05 02:15:31;;;;;;;7.00;4.32;;;;;;;;;;5104002;28;20478;-77
2022/06/05 02:17:57;;;;;;;8.75;4.40;;;;;;;;;;5103746;28;20019;-77
2022/06/05 02:20:23;;;;;;;6.47;4.25;;;;;;;;;;5101977;27;20108;-77
2022/06/05 02:22:51;;;;;;;7.65;4.40;;;;;;;;;;5100611;28;20066;-76
2022/06/05 02:25:21;;;;;;;8.85;4.88;;;;;;;;;;5094303;28;20593;-77
2022/06/05 02:27:46;;;;;;;7.00;4.35;;;;;;;;;;5097372;28;20509;-74
2022/06/05 02:30:15;;;;;;;6.55;4.18;;;;;;;;;;5098409;28;20098;-75
2022/06/05 02:33:14;;;;;;;7.50;4.13;;;;;;;;;;5101693;28;20032;-76
2022/06/05 02:36:02;;;;;;;7.32;4.50;;;;;;;;;;5088542;28;20048;-76
2022/06/05 02:38:47;;;;;;;8.65;4.28;;;;;;;;;;5072580;27;20792;-75
2022/06/05 02:41:27;;;;;;;7.88;4.55;;;;;;;;;;5104971;27;20106;-73
2022/06/05 02:44:31;;;;;;;6.75;4.53;;;;;;;;;;5104001;27;20031;-76
2022/06/05 02:47:09;;;;;;;27.10;5.90;;;;;;;;;;5102336;27;20038;-77
2022/06/05 02:49:42;;;;;;;6.65;4.65;;;;;;;;;;5102097;27;20572;-73
2022/06/05 02:52:08;;;;;;;7.00;4.45;;;;;;;;;;5110948;28;20023;-75
2022/06/05 02:54:50;;;;;;;6.10;3.92;;;;;;;;;;5101704;27;20399;-77
2022/06/05 02:57:16;;;;;;;7.10;4.57;;;;;;;;;;5099696;28;20031;-75
2022/06/05 02:59:41;;;;;;;7.75;4.82;;;;;;;;;;5100404;27;20383;-76
2022/06/05 03:04:50;;;;;;;7.03;4.40;;;;;;;;;;5104826;27;20066;-76
2022/06/05 03:07:16;;;;;;;6.93;4.72;;;;;;;;;;5102113;27;20106;-73
2022/06/05 03:09:42;;;;;;;7.95;5.10;;;;;;;;;;5107757;27;20039;-77
2022/06/05 03:12:07;;;;;;;7.43;4.57;;;;;;;;;;5098906;27;20118;-75
2022/06/05 03:14:33;;;;;;;7.07;4.60;;;;;;;;;;5113389;27;20035;-75
2022/06/05 03:16:58;;;;;;;7.13;4.75;;;;;;;;;;5100127;28;20035;-73
2022/06/05 03:19:24;;;;;;;7.25;4.82;;;;;;;;;;5102826;27;20407;-74
2022/06/05 03:21:49;;;;;;;7.07;4.85;;;;;;;;;;5102340;27;20031;-74
2022/06/05 03:24:15;;;;;;;8.23;5.00;;;;;;;;;;5103426;28;20023;-75
2022/06/05 03:26:40;;;;;;;7.07;4.53;;;;;;;;;;5096771;27;20061;-76
2022/06/05 03:29:07;;;;;;;7.78;4.88;;;;;;;;;;5102995;28;20032;-75
2022/06/05 03:31:34;;;;;;;7.40;4.90;;;;;;;;;;5107104;28;20030;-76
2022/06/05 03:33:59;;;;;;;6.97;4.93;;;;;;;;;;5104138;28;20044;-76
2022/06/05 03:36:25;;;;;;;7.15;4.68;;;;;;;;;;5102090;27;20027;-73
2022/06/05 03:38:50;;;;;;;8.80;5.43;;;;;;;;;;5104082;28;20035;-73
2022/06/05 03:41:17;;;;;;;7.32;4.80;;;;;;;;;;5104444;27;20114;-75
2022/06/05 03:43:43;;;;;;;9.18;5.28;;;;;;;;;;5105429;27;20023;-76
2022/06/05 03:46:11;;;;;;;10.15;5.60;;;;;;;;;;5098391;27;20488;-75
2022/06/05 03:48:37;;;;;;;7.57;5.30;;;;;;;;;;5102656;27;20027;-74
2022/06/05 03:51:14;;;;;;;9.40;5.80;;;;;;;;;;5105426;28;20026;-76
2022/06/05 03:53:39;;;;;;;8.00;5.47;;;;;;;;;;5101749;28;20035;-75
2022/06/05 03:56:13;;;;;;;7.78;5.05;;;;;;;;;;5098988;27;20024;-74
2022/06/05 03:58:39;;;;;;;8.48;5.40;;;;;;;;;;5100620;27;20103;-75
2022/06/05 04:01:11;;;;;;;8.25;4.60;;;;;;;;;;5105960;27;20098;-74
2022/06/05 04:03:37;;;;;;;7.90;5.00;;;;;;;;;;5106154;27;20019;-74
2022/06/05 04:06:08;;;;;;;8.20;5.13;;;;;;;;;;5100175;27;20043;-74
2022/06/05 04:08:35;;;;;;;8.00;5.45;;;;;;;;;;5102855;27;20170;-76
2022/06/05 04:11:05;;;;;;;8.60;5.70;;;;;;;;;;5104147;27;20062;-74
2022/06/05 04:13:31;;;;;;;8.85;5.07;;;;;;;;;;5103024;27;20454;-74
2022/06/05 04:15:56;;;;;;;7.70;5.40;;;;;;;;;;5102490;27;20063;-77
2022/06/05 04:18:21;;;;;;;10.95;5.70;;;;;;;;;;5107595;28;20081;-77
2022/06/05 04:20:47;;;;;;;7.70;5.30;;;;;;;;;;5105869;27;20038;-73
2022/06/05 04:23:12;;;;;;;10.73;5.88;;;;;;;;;;5095862;27;20023;-76
2022/06/05 04:25:42;;;;;;;9.88;5.93;;;;;;;;;;5103631;27;20107;-73
2022/06/05 04:28:08;;;;;;;8.07;5.63;;;;;;;;;;5101500;27;20028;-75
2022/06/05 04:30:38;;;;;;;10.27;6.18;;;;;;;;;;5100849;27;20108;-75
2022/06/05 04:33:04;;;;;;;8.20;5.30;;;;;;;;;;5102083;27;20020;-75
2022/06/05 04:35:30;;;;;;;7.85;5.15;;;;;;;;;;5102533;28;20044;-74
2022/06/05 04:37:55;;;;;;;7.70;5.32;;;;;;;;;;5099281;27;20030;-76
2022/06/05 04:40:20;;;;;;;8.45;5.70;;;;;;;;;;5098245;28;21151;-74
2022/06/05 04:42:46;;;;;;;8.02;5.65;;;;;;;;;;5103226;27;20031;-74
2022/06/05 04:45:12;;;;;;;9.73;5.97;;;;;;;;;;5096687;27;20365;-74
2022/06/05 04:47:37;;;;;;;9.50;6.50;;;;;;;;;;5100991;28;20036;-76
2022/06/05 04:50:03;;;;;;;9.50;5.80;;;;;;;;;;5102820;27;21344;-77
2022/06/05 04:52:29;;;;;;;9.25;5.70;;;;;;;;;;5095404;28;20042;-75
2022/06/05 04:54:54;;;;;;;9.55;5.75;;;;;;;;;;5102232;27;20463;-75
2022/06/05 04:57:19;;;;;;;10.43;6.50;;;;;;;;;;5102877;28;20077;-76
2022/06/05 04:59:45;;;;;;;8.98;5.95;;;;;;;;;;5101105;28;20488;-75
2022/06/05 05:02:10;;;;;;;8.80;6.32;;;;;;;;;;5100748;28;20051;-76
2022/06/05 05:04:36;;;;;;;8.70;5.95;;;;;;;;;;5097769;27;20032;-73
2022/06/05 05:07:03;;;;;;;8.90;5.70;;;;;;;;;;5099592;27;20551;-73
2022/06/05 05:09:29;;;;;;;9.80;6.53;;;;;;;;;;5103918;28;20048;-73
2022/06/05 05:11:54;;;;;;;11.63;6.45;;;;;;;;;;5101980;28;20031;-75
2022/06/05 05:14:19;;;;;;;8.82;5.88;;;;;;;;;;5099090;27;20023;-77
2022/06/05 05:16:45;;;;;;;10.88;6.47;;;;;;;;;;5104520;27;20034;-75
2022/06/05 05:19:10;;;;;;;9.88;6.30;;;;;;;;;;5107325;27;20035;-77
2022/06/05 05:21:36;;;;;;;9.63;5.65;;;;;;;;;;5094925;27;20034;-75
2022/06/05 05:24:02;;;;;;;9.27;6.20;;;;;;;;;;5105119;28;20026;-74
2022/06/05 05:26:31;;;;;;;9.77;6.43;;;;;;;;;;5101657;28;20878;-77
2022/06/05 05:28:58;;;;;;;11.60;6.40;;;;;;;;;;5101077;27;20028;-76
2022/06/05 05:31:36;;;;;;;10.68;6.63;;;;;;;;;;5100726;27;20032;-76
2022/06/05 05:34:02;;;;;;;13.15;6.70;;;;;;;;;;5103575;27;20040;-74
2022/06/05 05:36:28;;;;;;;10.27;6.75;;;;;;;;;;5102621;28;20046;-75
2022/06/05 05:44:23;;;;;;;10.13;6.47;;;;;;;;;;5100417;28;20395;-76
2022/06/05 05:46:48;;;;;;;10.13;6.40;;;;;;;;;;5101399;27;20036;-76
2022/06/05 05:49:14;;;;;;;10.75;7.15;;;;;;;;;;5098458;27;20020;-74
2022/06/05 05:51:40;;;;;;;10.50;6.68;;;;;;;;;;5095429;28;20030;-77
2022/06/05 05:54:06;;;;;;;9.90;6.72;;;;;;;;;;5100593;28;20107;-73
2022/06/05 05:56:31;;;;;;;9.73;6.53;;;;;;;;;;5102373;28;20035;-74
2022/06/05 05:58:57;;;;;;;9.15;6.47;;;;;;;;;;5102485;27;20080;-76
2022/06/05 06:01:23;;;;;;;9.43;6.28;;;;;;;;;;5108521;27;20050;-75
2022/06/05 06:03:48;;;;;;;9.38;6.32;;;;;;;;;;5095764;28;20464;-74
2022/06/05 06:06:14;;;;;;;8.90;6.25;;;;;;;;;;5094023;28;20045;-73
2022/06/05 06:08:40;;;;;;;11.95;6.38;;;;;;;;;;5100080;28;20085;-74
2022/06/05 06:11:05;;;;;;;8.75;6.55;;;;;;;;;;5102940;28;20066;-75
2022/06/05 06:13:31;;;;;;;10.35;6.70;;;;;;;;;;5099514;27;20440;-77
2022/06/05 06:15:56;;;;;;;11.77;6.03;;;;;;;;;;5103438;28;20027;-76
2022/06/05 06:18:22;;;;;;;9.55;6.85;;;;;;;;;;5093578;28;21019;-74
2022/06/05 06:20:47;;;;;;;12.00;6.82;;;;;;;;;;5096621;28;20084;-74
2022/06/05 06:23:14;;;;;;;8.88;6.10;;;;;;;;;;5095713;28;20027;-75
2022/06/05 06:25:40;;;;;;;9.63;6.35;;;;;;;;;;5098116;28;20034;-74
2022/06/05 06:28:05;;;;;;;8.30;5.78;;;;;;;;;;5093499;28;20111;-77
2022/06/05 06:30:35;;;;;;;9.68;5.88;;;;;;;;;;5095220;28;20158;-76
2022/06/05 06:33:01;;;;;;;10.43;6.60;;;;;;;;;;5101331;28;20020;-73
2022/06/05 06:35:27;;;;;;;10.18;6.57;;;;;;;;;;5105155;28;20044;-75
2022/06/05 06:37:53;;;;;;;9.18;6.25;;;;;;;;;;5099024;28;20046;-76
2022/06/05 06:40:18;;;;;;;9.18;6.40;;;;;;;;;;5101425;28;20102;-73
2022/06/05 06:42:44;;;;;;;9.70;6.80;;;;;;;;;;5092430;28;20043;-76
2022/06/05 06:45:10;;;;;;;9.55;6.57;;;;;;;;;;5099058;28;20036;-75
2022/06/05 06:47:36;;;;;;;9.88;6.38;;;;;;;;;;5101704;28;21357;-77
2022/06/05 06:50:02;;;;;;;9.35;6.68;;;;;;;;;;5096456;28;20064;-75
2022/06/05 06:52:27;;;;;;;10.57;6.20;;;;;;;;;;5102021;28;20023;-75
2022/06/05 06:54:54;;;;;;;9.68;6.68;;;;;;;;;;5103897;28;20107;-76
2022/06/05 06:57:19;;;;;;;9.02;6.40;;;;;;;;;;5095248;28;20483;-77
2022/06/05 06:59:45;;;;;;;9.07;6.30;;;;;;;;;;5107860;28;20024;-76
2022/06/05 07:02:10;;;;;;;8.80;6.35;;;;;;;;;;5106334;28;20114;-76
2022/06/05 07:04:36;;;;;;;8.68;6.25;;;;;;;;;;5105846;28;20016;-75
2022/06/05 07:07:01;;;;;;;8.43;6.20;;;;;;;;;;5095528;28;20062;-74
2022/06/05 07:09:26;;;;;;;10.02;6.70;;;;;;;;;;5097080;28;20019;-74
2022/06/05 07:11:52;;;;;;;8.57;6.60;;;;;;;;;;5106225;28;20020;-74
2022/06/05 07:14:17;;;;;;;9.93;7.45;;;;;;;;;;5103624;28;20024;-75
2022/06/05 07:16:43;;;;;;;11.63;6.15;;;;;;;;;;5103390;28;20031;-75
2022/06/05 07:19:09;;;;;;;10.05;6.70;;;;;;;;;;5103797;28;20039;-76
2022/06/05 07:21:34;;;;;;;9.05;6.75;;;;;;;;;;5107401;28;20110;-74
2022/06/05 07:23:59;;;;;;;9.27;6.82;;;;;;;;;;5104442;28;20028;-76
2022/06/05 07:26:29;;;;;;;10.50;7.10;;;;;;;;;;5106536;28;20028;-74
2022/06/05 07:28:56;;;;;;;8.13;6.43;;;;;;;;;;5108770;27;20032;-75
2022/06/05 07:31:22;;;;;;;8.98;5.90;;;;;;;;;;5106153;28;20028;-75
2022/06/05 07:33:48;;;;;;;10.68;6.22;;;;;;;;;;5103920;27;20065;-77
2022/06/05 07:36:17;;;;;;;9.25;6.22;;;;;;;;;;5101691;27;20028;-76
2022/06/05 07:38:43;;;;;;;9.93;6.72;;;;;;;;;;5106327;28;20607;-74
2022/06/05 07:41:21;;;;;;;7.57;5.82;;;;;;;;;;5108863;27;20054;-74
2022/06/05 07:43:47;;;;;;;9.45;6.95;;;;;;;;;;5104397;28;20042;-74
2022/06/05 07:46:13;;;;;;;7.53;6.03;;;;;;;;;;5105729;27;20020;-76
2022/06/05 07:48:39;;;;;;;10.95;6.65;;;;;;;;;;5108258;27;20038;-76
2022/06/05 07:56:41;;;;;;;9.07;6.57;;;;;;;;;;5106386;27;20078;-76
2022/06/05 07:59:07;;;;;;;7.88;6.20;;;;;;;;;;5109147;28;20055;-77
2022/06/05 08:01:33;;;;;;;8.18;6.60;;;;;;;;;;5104339;28;20024;-73
2022/06/05 08:03:58;;;;;;;9.13;6.45;;;;;;;;;;5104301;27;20407;-75
2022/06/05 08:06:24;;;;;;;9.88;6.13;;;;;;;;;;5103635;27;20119;-74
2022/06/05 08:08:49;;;;;;;9.00;6.20;;;;;;;;;;5105796;28;20046;-75
2022/06/05 08:11:14;;;;;;;6.78;5.80;;;;;;;;;;5104354;27;20023;-75
2022/06/05 08:13:40;;;;;;;7.32;6.43;;;;;;;;;;5108025;28;20028;-76
2022/06/05 08:16:05;;;;;;;7.55;6.18;;;;;;;;;;5107944;27;20015;-76
2022/06/05 08:18:31;;;;;;;8.65;6.32;;;;;;;;;;5109367;27;20020;-74
2022/06/05 08:20:56;;;;;;;9.90;6.40;;;;;;;;;;5108833;28;20023;-74
2022/06/05 08:23:23;;;;;;;8.23;6.43;;;;;;;;;;5105029;27;20795;-76
2022/06/05 08:25:49;;;;;;;7.70;6.70;;;;;;;;;;5103934;28;20490;-74
2022/06/05 08:28:16;;;;;;;7.63;6.82;;;;;;;;;;5106193;28;20016;-74
2022/06/05 08:30:41;;;;;;;9.15;6.57;;;;;;;;;;5105618;28;20020;-74
2022/06/05 08:33:08;;;;;;;7.10;5.93;;;;;;;;;;5106230;28;20024;-76
2022/06/05 08:35:34;;;;;;;7.88;6.38;;;;;;;;;;5098779;27;20119;-75
2022/06/05 08:44:02;;;;;;;7.72;6.78;;;;;;;;;;5104117;27;20070;-73
2022/06/05 08:46:37;;;;;;;12.23;6.57;;;;;;;;;;5107299;28;20039;-75
2022/06/05 08:49:10;;;;;;;7.55;6.30;;;;;;;;;;5101607;28;20024;-74
2022/06/05 08:52:05;;;;;;;7.70;6.88;;;;;;;;;;5102571;28;20465;-74
2022/06/05 08:54:38;;;;;;;9.23;7.15;;;;;;;;;;5075345;28;20649;-70
2022/06/05 08:57:31;;;;;;;8.40;6.78;;;;;;;;;;5102401;28;20028;-73
2022/06/05 09:00:20;;;;;;;9.27;7.00;;;;;;;;;;5105362;28;20411;-72
2022/06/05 09:02:54;;;;;;;8.05;6.88;;;;;;;;;;5107591;28;20034;-73
2022/06/05 09:05:55;;;;;;;8.27;6.68;;;;;;;;;;5109852;28;20031;-73
2022/06/05 09:08:25;;;;;;;8.80;6.97;;;;;;;;;;5063910;28;20155;-71
2022/06/05 09:11:01;;;;;;;8.32;6.57;;;;;;;;;;5105015;28;20031;-74
2022/06/05 09:13:36;;;;;;;13.43;7.28;;;;;;;;;;5104641;27;20396;-74
2022/06/05 09:16:05;;;;;;;7.40;6.60;;;;;;;;;;5101900;27;20114;-70
2022/06/05 09:18:46;;;;;;;7.05;6.35;;;;;;;;;;5101740;27;20035;-74
2022/06/05 09:21:22;;;;;;;8.70;7.13;;;;;;;;;;5123630;27;20391;-73
2022/06/05 09:23:50;;;;;;;8.93;6.88;;;;;;;;;;5103296;28;20080;-72
2022/06/05 09:26:22;;;;;;;7.47;6.75;;;;;;;;;;5111031;28;20121;-73
2022/06/05 09:29:28;;;;;;;8.90;6.82;;;;;;;;;;5102344;28;20088;-73
2022/06/05 09:32:29;;;;;;;7.97;6.60;;;;;;;;;;5055728;27;20031;-71
2022/06/05 09:34:59;;;;;;;9.20;6.95;;;;;;;;;;5101856;28;20068;-73
2022/06/05 09:37:33;;;;;;;10.45;6.55;;;;;;;;;;5105464;28;20034;-69
2022/06/05 09:40:15;;;;;;;8.85;6.90;;;;;;;;;;5099061;28;20475;-71
2022/06/05 09:42:53;;;;;;;8.68;6.80;;;;;;;;;;5098401;28;20110;-73
2022/06/05 09:45:38;;;;;;;8.18;6.60;;;;;;;;;;5116304;27;20034;-74
2022/06/05 09:48:37;;;;;;;8.60;7.70;;;;;;;;;;5102334;27;20024;-73
2022/06/05 09:51:09;;;;;;;8.13;7.15;;;;;;;;;;5114919;27;20509;-75
2022/06/05 09:53:57;;;;;;;8.48;7.20;;;;;;;;;;5101779;28;20753;-72
2022/06/05 09:59:33;;;;;;;9.70;7.43;;;;;;;;;;5103257;28;20080;-73
2022/06/05 10:02:00;;;;;;;8.73;7.60;;;;;;;;;;5106144;28;20395;-70
2022/06/05 10:04:31;;;;;;;7.68;6.88;;;;;;;;;;5105701;28;20023;-71
2022/06/05 10:07:06;;;;;;;10.45;7.78;;;;;;;;;;5104604;28;20506;-75
2022/06/05 10:09:34;;;;;;;10.15;8.13;;;;;;;;;;5101843;28;20024;-74
2022/06/05 10:12:07;;;;;;;8.48;7.57;;;;;;;;;;5100151;28;20024;-73
2022/06/05 10:14:57;;;;;;;8.65;7.40;;;;;;;;;;5101211;27;20016;-73
2022/06/05 10:17:45;;;;;;;8.82;6.82;;;;;;;;;;5098729;28;20034;-71
2022/06/05 10:20:13;;;;;;;8.48;7.57;;;;;;;;;;5101647;28;20032;-74
2022/06/05 10:22:38;;;;;;;11.38;7.60;;;;;;;;;;5099722;28;20040;-71
2022/06/05 10:25:28;;;;;;;10.73;9.40;;;;;;;;;;5104558;27;20391;-73
2022/06/05 10:28:01;;;;;;;9.55;7.95;;;;;;;;;;5102750;28;20395;-70
2022/06/05 10:30:33;;;;;;;10.02;8.15;;;;;;;;;;5104274;28;20023;-71
2022/06/05 10:33:28;;;;;;;9.40;8.40;;;;;;;;;;5102473;28;20028;-70
2022/06/05 10:36:06;;;;;;;8.95;7.68;;;;;;;;;;5099743;28;20509;-73
2022/06/05 10:38:42;;;;;;;9.10;7.72;;;;;;;;;;5104499;28;20039;-74
2022/06/05 10:41:16;;;;;;;8.50;7.43;;;;;;;;;;5101681;28;20059;-71
2022/06/05 10:43:42;;;;;;;9.32;8.23;;;;;;;;;;5101096;28;20376;-72
2022/06/05 10:46:20;;;;;;;8.80;7.90;;;;;;;;;;5103966;28;20027;-74
2022/06/05 10:48:59;;;;;;;9.27;7.72;;;;;;;;;;5106244;28;20067;-74
2022/06/05 10:52:09;;;;;;;9.68;8.02;;;;;;;;;;5104767;28;20023;-75
2022/06/05 10:54:54;;;;;;;9.18;7.97;;;;;;;;;;5076435;28;20040;-74
2022/06/05 10:57:33;;;;;;;10.05;7.55;;;;;;;;;;5109546;27;20073;-71
2022/06/05 11:00:21;;;;;;;8.88;7.97;;;;;;;;;;5103947;28;20043;-73
2022/06/05 11:02:52;;;;;;;11.45;8.05;;;;;;;;;;5097488;27;20820;-71
2022/06/05 11:05:45;;;;;;;9.98;7.82;;;;;;;;;;5104285;28;20032;-73
2022/06/05 11:08:56;;;;;;;9.07;7.43;;;;;;;;;;5101282;28;20066;-71
2022/06/05 11:14:48;;;;;;;10.68;8.85;;;;;;;;;;5102888;27;20087;-73
2022/06/05 11:17:19;;;;;;;10.07;8.90;;;;;;;;;;5101266;27;20061;-74
2022/06/05 11:20:03;;;;;;;10.10;8.77;;;;;;;;;;5107684;28;20037;-72
2022/06/05 11:22:29;;;;;;;11.65;9.40;;;;;;;;;;5096594;27;20051;-74
2022/06/05 11:25:08;;;;;;;10.38;9.30;;;;;;;;;;5086499;27;20121;-73
2022/06/05 11:27:46;;;;;;;13.73;9.45;;;;;;;;;;5092790;27;20152;-74
2022/06/05 11:30:11;;;;;;;10.88;9.43;;;;;;;;;;5085486;27;20119;-74
2022/06/05 11:32:53;;;;;;;11.20;8.82;;;;;;;;;;5090124;27;20628;-74
2022/06/05 11:35:28;;;;;;;10.35;9.25;;;;;;;;;;5092721;28;20040;-74
2022/06/05 11:37:56;;;;;;;10.10;9.10;;;;;;;;;;5092388;27;20032;-74
2022/06/05 11:40:49;;;;;;;10.52;9.43;;;;;;;;;;5094164;28;20032;-74
2022/06/05 11:43:39;;;;;;;11.18;9.23;;;;;;;;;;5088284;27;20027;-71
2022/06/05 11:46:08;;;;;;;10.48;9.38;;;;;;;;;;5092673;28;20378;-73
2022/06/05 11:48:56;;;;;;;10.18;8.32;;;;;;;;;;5093938;27;20031;-74
2022/06/05 11:51:27;;;;;;;10.35;9.20;;;;;;;;;;5094840;28;20024;-74
2022/06/05 11:54:25;;;;;;;11.13;8.80;;;;;;;;;;5090188;28;20035;-75
2022/06/05 11:57:16;;;;;;;11.38;8.75;;;;;;;;;;5095078;27;20138;-74
2022/06/05 11:59:55;;;;;;;12.13;9.30;;;;;;;;;;5086912;28;20034;-74
2022/06/05 12:02:30;;;;;;;11.90;9.27;;;;;;;;;;5093248;27;20080;-74
2022/06/05 12:05:05;;;;;;;11.77;10.10;;;;;;;;;;5091586;28;20080;-73
2022/06/05 12:07:32;;;;;;;11.07;9.98;;;;;;;;;;5093043;27;20038;-74
2022/06/05 12:10:14;;;;;;;11.23;9.98;;;;;;;;;;5086935;28;20024;-74
2022/06/05 12:12:54;;;;;;;13.15;10.18;;;;;;;;;;5090836;28;20380;-74
2022/06/05 12:15:27;;;;;;;11.73;9.85;;;;;;;;;;5094685;28;20038;-74
2022/06/05 12:18:06;;;;;;;11.60;10.40;;;;;;;;;;5088174;27;20372;-75
2022/06/05 12:20:49;;;;;;;13.77;11.43;;;;;;;;;;5086878;27;20053;-72
2022/06/05 12:23:33;;;;;;;12.75;11.40;;;;;;;;;;5088401;27;20035;-74
2022/06/05 12:26:12;;;;;;;12.48;10.98;;;;;;;;;;5090596;27;20831;-74
2022/06/05 12:28:50;;;;;;;12.25;9.98;;;;;;;;;;5091734;27;20027;-74
2022/06/05 12:31:27;;;;;;;12.20;10.25;;;;;;;;;;5093386;28;20038;-71
2022/06/05 12:34:01;;;;;;;12.20;10.50;;;;;;;;;;5085805;28;20029;-74
2022/06/05 12:36:41;;;;;;;14.68;12.18;;;;;;;;;;5089930;28;20031;-76
2022/06/05 12:39:23;;;;;;;12.35;11.05;;;;;;;;;;5090724;28;20040;-74
2022/06/05 12:42:28;;;;;;;11.98;10.50;;;;;;;;;;5088360;27;20749;-75
2022/06/05 12:45:00;;;;;;;13.02;11.45;;;;;;;;;;5094789;27;20063;-75
2022/06/05 12:47:26;;;;;;;14.57;10.63;;;;;;;;;;5095127;27;20024;-76
2022/06/05 12:49:54;;;;;;;12.88;11.05;;;;;;;;;;5092932;28;20152;-73
2022/06/05 12:52:36;;;;;;;13.85;11.98;;;;;;;;;;5086274;27;20026;-75
2022/06/05 12:55:07;;;;;;;13.50;11.50;;;;;;;;;;5091106;28;20027;-76
2022/06/05 12:58:02;;;;;;;12.77;11.40;;;;;;;;;;5093358;28;20035;-75
2022/06/05 13:00:40;;;;;;;13.20;11.80;;;;;;;;;;5092111;28;20075;-75
2022/06/05 13:03:37;;;;;;;13.13;11.60;;;;;;;;;;5086040;27;20085;-76
2022/06/05 13:06:09;;;;;;;13.43;11.52;;;;;;;;;;5097034;28;20042;-76
2022/06/05 13:08:58;;;;;;;13.27;11.03;;;;;;;;;;5087774;28;20100;-76
2022/06/05 13:11:32;;;;;;;13.32;10.98;;;;;;;;;;5092986;28;20276;-73
2022/06/05 13:14:39;;;;;;;12.23;10.32;;;;;;;;;;5088706;28;20019;-76
2022/06/05 13:17:22;;;;;;;10.68;9.35;;;;;;;;;;5085126;28;20039;-74
2022/06/05 13:20:24;;;;;;;10.60;9.50;;;;;;;;;;5090288;28;20080;-76
2022/06/05 13:22:59;;;;;;;10.60;9.48;;;;;;;;;;5069495;27;22286;-77
2022/06/05 13:25:42;;;;;;;10.52;9.38;;;;;;;;;;5098116;28;20030;-74
2022/06/05 13:28:25;;;;;;;10.90;9.68;;;;;;;;;;5102446;28;20023;-77
2022/06/05 13:30:58;;;;;;;10.80;9.70;;;;;;;;;;5096374;28;20459;-75
2022/06/05 13:33:35;;;;;;;10.70;9.00;;;;;;;;;;5095599;27;20041;-75
2022/06/05 13:36:26;;;;;;;11.32;9.60;;;;;;;;;;5094539;28;20125;-74
2022/06/05 13:39:27;;;;;;;10.85;9.73;;;;;;;;;;5098249;28;20108;-76
2022/06/05 13:42:10;;;;;;;10.02;8.60;;;;;;;;;;5102465;27;20113;-75
2022/06/05 13:44:36;;;;;;;;;;;;;;;;;;5097860;27;22458;-77
2022/06/05 13:47:35;;;;;;;10.80;9.05;;;;;;;;;;5095694;27;19946;-74
2022/06/05 13:50:06;;;;;;;10.88;9.38;;;;;;;;;;5095216;28;20036;-76
2022/06/05 13:52:45;;;;;;;9.95;8.80;;;;;;;;;;5097330;28;20056;-74
2022/06/05 13:55:35;;;;;;;10.75;9.63;;;;;;;;;;5102053;28;20032;-74
2022/06/05 13:58:25;;;;;;;10.32;9.23;;;;;;;;;;5096345;27;20448;-76
2022/06/05 14:00:56;;;;;;;11.50;9.93;;;;;;;;;;5097043;28;20031;-74
2022/06/05 14:03:46;;;;;;;10.43;9.43;;;;;;;;;;5096060;27;20055;-75
2022/06/05 14:06:23;;;;;;;11.43;10.00;;;;;;;;;;5076485;28;20051;-76
2022/06/05 14:09:08;;;;;;;11.13;9.05;;;;;;;;;;5090703;27;20139;-75
2022/06/05 14:11:39;;;;;;;11.10;9.70;;;;;;;;;;5084898;27;20569;-76
2022/06/05 14:14:06;;;;;;;12.77;10.50;;;;;;;;;;5094759;28;20031;-75
2022/06/05 14:16:44;;;;;;;11.63;10.07;;;;;;;;;;5089397;27;20062;-74
2022/06/05 14:19:23;;;;;;;11.32;10.13;;;;;;;;;;5087082;28;20072;-76
2022/06/05 14:22:02;;;;;;;11.60;10.25;;;;;;;;;;5089107;28;20039;-76
2022/06/05 14:24:34;;;;;;;12.43;11.13;;;;;;;;;;5084653;27;20094;-74
2022/06/05 14:27:03;;;;;;;12.70;11.30;;;;;;;;;;5092428;28;20059;-76
2022/06/05 14:29:32;;;;;;;11.98;10.57;;;;;;;;;;5088078;28;20027;-76
2022/06/05 14:32:06;;;;;;;11.43;10.23;;;;;;;;;;5093659;28;20023;-75
2022/06/05 14:34:37;;;;;;;11.35;10.15;;;;;;;;;;5091020;28;20054;-76
2022/06/05 14:37:19;;;;;;;10.30;9.00;;;;;;;;;;5092409;28;20035;-76
2022/06/05 14:39:45;;;;;;;9.48;8.48;;;;;;;;;;5092293;28;20039;-74
2022/06/05 14:42:37;;;;;;;10.15;8.27;;;;;;;;;;5092318;28;20023;-74
2022/06/05 14:45:14;;;;;;;9.38;7.63;;;;;;;;;;5083553;28;20043;-76
2022/06/05 14:47:58;;;;;;;7.63;6.60;;;;;;;;;;5085691;28;20515;-76
2022/06/05 14:50:47;;;;;;;7.32;6.53;;;;;;;;;;5085709;28;20028;-75
2022/06/05 14:53:31;;;;;;;8.88;6.50;;;;;;;;;;5093076;28;20030;-75
2022/06/05 14:59:04;;;;;;;8.10;6.70;;;;;;;;;;5094500;28;20058;-75
2022/06/05 15:01:59;;;;;;;8.35;6.68;;;;;;;;;;5089760;28;20055;-76
2022/06/05 15:04:40;;;;;;;6.95;6.07;;;;;;;;;;5093409;28;20341;-76
2022/06/05 15:07:15;;;;;;;7.53;5.70;;;;;;;;;;5090520;28;20035;-76
2022/06/05 15:09:50;;;;;;;7.18;5.90;;;;;;;;;;5087974;28;20038;-74
2022/06/05 15:12:23;;;;;;;6.65;5.53;;;;;;;;;;5084890;28;20020;-76
2022/06/05 15:15:13;;;;;;;6.97;5.60;;;;;;;;;;5085832;28;20269;-76
2022/06/05 15:17:45;;;;;;;7.72;6.13;;;;;;;;;;5090766;28;20031;-73
2022/06/05 15:20:19;;;;;;;9.30;5.93;;;;;;;;;;5082649;28;20036;-74
2022/06/05 15:23:10;;;;;;;7.07;5.18;;;;;;;;;;5083962;28;20035;-74
2022/06/05 15:25:42;;;;;;;6.85;5.43;;;;;;;;;;5084837;28;20027;-76
2022/06/05 15:28:22;;;;;;;5.95;4.80;;;;;;;;;;5086825;28;20578;-76
2022/06/05 15:31:01;;;;;;;6.55;4.72;;;;;;;;;;5088295;28;20039;-76
2022/06/05 15:33:42;;;;;;;5.97;5.10;;;;;;;;;;5083746;28;20043;-75
2022/06/05 15:36:14;;;;;;;5.45;4.40;;;;;;;;;;5094244;28;20028;-76
2022/06/05 15:38:39;;;;;;;6.30;4.38;;;;;;;;;;5099349;28;20024;-74
2022/06/05 15:41:26;;;;;;;7.05;4.70;;;;;;;;;;5104798;28;20024;-74
2022/06/05 15:44:24;;;;;;;7.03;4.50;;;;;;;;;;5102168;28;20039;-74
2022/06/05 15:47:14;;;;;;;5.80;4.20;;;;;;;;;;5102972;28;20036;-74